Majesty of the Seas — C6FZ8 — position and weather

sailwx.info

Track history (hours):
 
Tides and Currents Weather Stations Pressure Air Temp Water Temp Dewpoint Dewpoint Depression Visibility Wind Speed Wind Dir Waves Ship Positions

Majesty of the Seas (Bahamas)

Last reported at 2019-Jun-15 22:46 UTC. Time now 2019-Jun-16 14:40 UTC.
Position N 25°36' W 079°50'.

Length 268 m; draft 8 m.

Type: Ship. MMSI: 311734000.

Date/timePositionNaut miles runAvg speedWind from/ knotsBaromVisibWave heightAir tempDewpointWater temp
2019-Jun-15 22:46N 25°36' W 079°50'413.9
2019-Jun-15 22:30N 25°39' W 079°51'714.1
2019-Jun-15 22:00N 25°45' W 079°54'714.3
2019-Jun-15 21:30N 25°52' W 079°58'714.3
2019-Jun-15 21:00N 25°59' W 080°01'714.2
2019-Jun-15 20:30N 26°05' W 080°05'2 4.3
2019-Jun-15 19:58N 26°05' W 080°07'0 0.0
2019-Jun-15 19:30N 26°05' W 080°07'0 0.0
2019-Jun-15 19:00N 26°05' W 080°07'0 0.0
2019-Jun-15 18:30N 26°05' W 080°07'0 0.0
2019-Jun-15 18:00N 26°05' W 080°07'0 0.0
2019-Jun-15 17:30N 26°05' W 080°07'0 0.0
2019-Jun-15 17:00N 26°05' W 080°07'0 0.0
2019-Jun-15 16:30N 26°05' W 080°07'0 0.0
2019-Jun-15 15:57N 26°05' W 080°07'0 0.0
2019-Jun-15 15:30N 26°05' W 080°07'0 0.0
2019-Jun-15 15:00N 26°05' W 080°07'0 0.0
2019-Jun-15 14:30N 26°05' W 080°07'0 0.0
2019-Jun-15 14:00N 26°05' W 080°07'0 0.0
2019-Jun-15 13:30N 26°05' W 080°07'0 0.0
2019-Jun-15 13:00N 26°05' W 080°07'0 0.0
2019-Jun-15 12:24N 26°05' W 080°07'0 0.0
2019-Jun-15 11:57N 26°05' W 080°07'0 0.0
2019-Jun-15 11:27N 26°05' W 080°07'0 0.0
2019-Jun-15 11:00N 26°05' W 080°07'1 1.2
2019-Jun-15 10:30N 26°06' W 080°07'510.9
2019-Jun-15 10:00N 26°06' W 080°01'4 8.2
2019-Jun-15 09:30N 26°03' W 079°58'612.7
2019-Jun-15 09:00N 25°57' W 079°54'917.7
2019-Jun-15 08:30N 25°50' W 079°49'918.1
2019-Jun-15 08:01N 25°41' W 079°46'918.0
2019-Jun-15 07:30N 25°32' W 079°45'917.9
2019-Jun-15 07:00N 25°23' W 079°46'15 0.4
2019-Jun-13 12:00N 25°36' W 079°36'519.4 170 / 61016.810.8 28.023.730.0
2019-Jun-13 11:43N 25°41' W 079°38'311.5
2019-Jun-13 11:30N 25°44' W 079°38'611.4
2019-Jun-13 10:57N 25°50' W 079°38'511.6
2019-Jun-13 10:30N 25°55' W 079°37'611.2
2019-Jun-13 10:01N 25°59' W 079°34'4 7.2
2019-Jun-13 09:31N 26°02' W 079°32'4 7.1
2019-Jun-13 09:00N 26°05' W 079°28'4 7.6
2019-Jun-13 08:30N 26°07' W 079°25'4 7.6
2019-Jun-13 08:01N 26°10' W 079°23'4 7.8
2019-Jun-13 07:27N 26°13' W 079°19'  
2019-Jun-10 21:41N 26°10' W 079°47'314.3
2019-Jun-10 21:30N 26°09' W 079°50'714.8
2019-Jun-10 21:00N 26°07' W 079°58'611.3
2019-Jun-10 20:30N 26°06' W 080°04'3 5.7
2019-Jun-10 20:00N 26°05' W 080°07'0 0.0
2019-Jun-10 19:29N 26°05' W 080°07'0 0.0
2019-Jun-10 18:59N 26°05' W 080°07'0 0.0
2019-Jun-10 18:29N 26°05' W 080°07'0 0.0
2019-Jun-10 17:59N 26°05' W 080°07'0 0.0
2019-Jun-10 17:29N 26°05' W 080°07'0 0.0
2019-Jun-10 16:59N 26°05' W 080°07'0 0.0
2019-Jun-10 16:26N 26°05' W 080°07'0 0.0
2019-Jun-10 15:59N 26°05' W 080°07'0 0.0
2019-Jun-10 15:29N 26°05' W 080°07'0 0.0
2019-Jun-10 14:59N 26°05' W 080°07'0 0.0
2019-Jun-10 14:29N 26°05' W 080°07'0 0.0
2019-Jun-10 13:56N 26°05' W 080°07'0 0.0
2019-Jun-10 13:29N 26°05' W 080°07'0 0.0
2019-Jun-10 12:59N 26°05' W 080°07'0 0.0
2019-Jun-10 12:29N 26°05' W 080°07'0 0.0
2019-Jun-10 11:59N 26°05' W 080°07'0 0.0
2019-Jun-10 11:29N 26°05' W 080°07'0 0.0
2019-Jun-10 10:59N 26°05' W 080°07'0 0.5
2019-Jun-10 10:31N 26°05' W 080°07'4 8.9
2019-Jun-10 10:01N 26°05' W 080°02'815.6
2019-Jun-10 09:30N 26°03' W 079°54'612.1
2019-Jun-10 09:00N 25°59' W 079°49'713.7
2019-Jun-10 08:30N 25°53' W 079°46'815.1
2019-Jun-10 08:00N 25°45' W 079°45'714.9
2019-Jun-10 07:30N 25°38' W 079°45'714.7
2019-Jun-10 07:00N 25°30' W 079°45'612.3
2019-Jun-10 06:29N 25°24' W 079°45'1814.2
2019-Jun-10 05:13N 25°07' W 079°50'4315.7
2019-Jun-10 02:28N 24°32' W 080°19'43816.1
2019-Jun-08 23:11N 20°34' W 086°58'318.7
2019-Jun-08 23:01N 20°31' W 086°59'2 4.4
2019-Jun-08 22:28N 20°29' W 086°59'0 0.0
2019-Jun-08 21:58N 20°29' W 086°59'0 0.0
2019-Jun-08 21:28N 20°29' W 086°59'0 0.0
2019-Jun-08 20:55N 20°29' W 086°59'0 0.0
2019-Jun-08 20:28N 20°29' W 086°59'0 0.0
2019-Jun-08 19:55N 20°29' W 086°59'0 0.0
2019-Jun-08 19:28N 20°29' W 086°59'0 0.0
2019-Jun-08 18:58N 20°29' W 086°59'0 0.0
2019-Jun-08 18:28N 20°29' W 086°59'0 0.0
2019-Jun-08 17:58N 20°29' W 086°59'0 0.0
2019-Jun-08 17:28N 20°29' W 086°59'0 0.0
2019-Jun-08 16:58N 20°29' W 086°59'0 0.0
2019-Jun-08 16:28N 20°29' W 086°59'0 0.0
2019-Jun-08 15:58N 20°29' W 086°59'0 0.0
2019-Jun-08 15:28N 20°29' W 086°59'0 0.0
2019-Jun-08 14:49N 20°29' W 086°59'0 0.0
2019-Jun-08 14:28N 20°29' W 086°59'0 0.0
2019-Jun-08 13:58N 20°29' W 086°59'0 0.0
2019-Jun-08 13:28N 20°29' W 086°59'0 0.0
2019-Jun-08 13:00N 20°29' W 086°59'2 4.0
2019-Jun-08 12:30N 20°31' W 086°59'4 8.9
2019-Jun-08 12:00N 20°28' W 087°03'216 5.3
2019-Jun-06 19:00N 22°48' W 084°06'9515.9 350 / 91011.810.8 29.024.830.0
2019-Jun-06 13:00N 23°24' W 082°30'20214.4 180 / 61013.610.8 26.024.629.0
2019-Jun-05 22:58N 25°39' W 079°46'  
Track history (hours):
 
Tides and Currents Weather Stations Pressure Air Temp Water Temp Dewpoint Dewpoint Depression Visibility Wind Speed Wind Dir Waves Ship Positions

Majesty of the Seas (Bahamas)

Last reported at 2019-Jun-15 22:46 UTC. Time now 2019-Jun-16 14:40 UTC.
Position N 25°36' W 079°50'.

Length 268 m; draft 8 m.

Type: Ship. MMSI: 311734000.

Date/timePositionNaut miles runAvg speedWind from/ knotsBaromVisibWave heightAir tempDewpointWater temp
2019-Jun-15 22:46N 25°36' W 079°50'413.9
2019-Jun-15 22:30N 25°39' W 079°51'714.1
2019-Jun-15 22:00N 25°45' W 079°54'714.3
2019-Jun-15 21:30N 25°52' W 079°58'714.3
2019-Jun-15 21:00N 25°59' W 080°01'714.2
2019-Jun-15 20:30N 26°05' W 080°05'2 4.3
2019-Jun-15 19:58N 26°05' W 080°07'0 0.0
2019-Jun-15 19:30N 26°05' W 080°07'0 0.0
2019-Jun-15 19:00N 26°05' W 080°07'0 0.0
2019-Jun-15 18:30N 26°05' W 080°07'0 0.0
2019-Jun-15 18:00N 26°05' W 080°07'0 0.0
2019-Jun-15 17:30N 26°05' W 080°07'0 0.0
2019-Jun-15 17:00N 26°05' W 080°07'0 0.0
2019-Jun-15 16:30N 26°05' W 080°07'0 0.0
2019-Jun-15 15:57N 26°05' W 080°07'0 0.0
2019-Jun-15 15:30N 26°05' W 080°07'0 0.0
2019-Jun-15 15:00N 26°05' W 080°07'0 0.0
2019-Jun-15 14:30N 26°05' W 080°07'0 0.0
2019-Jun-15 14:00N 26°05' W 080°07'0 0.0
2019-Jun-15 13:30N 26°05' W 080°07'0 0.0
2019-Jun-15 13:00N 26°05' W 080°07'0 0.0
2019-Jun-15 12:24N 26°05' W 080°07'0 0.0
2019-Jun-15 11:57N 26°05' W 080°07'0 0.0
2019-Jun-15 11:27N 26°05' W 080°07'0 0.0
2019-Jun-15 11:00N 26°05' W 080°07'1 1.2
2019-Jun-15 10:30N 26°06' W 080°07'510.9
2019-Jun-15 10:00N 26°06' W 080°01'4 8.2
2019-Jun-15 09:30N 26°03' W 079°58'612.7
2019-Jun-15 09:00N 25°57' W 079°54'917.7
2019-Jun-15 08:30N 25°50' W 079°49'918.1
2019-Jun-15 08:01N 25°41' W 079°46'918.0
2019-Jun-15 07:30N 25°32' W 079°45'917.9
2019-Jun-15 07:00N 25°23' W 079°46'15 0.4
2019-Jun-13 12:00N 25°36' W 079°36'519.4 170 / 61016.810.8 28.023.730.0
2019-Jun-13 11:43N 25°41' W 079°38'311.5
2019-Jun-13 11:30N 25°44' W 079°38'611.4
2019-Jun-13 10:57N 25°50' W 079°38'511.6
2019-Jun-13 10:30N 25°55' W 079°37'611.2
2019-Jun-13 10:01N 25°59' W 079°34'4 7.2
2019-Jun-13 09:31N 26°02' W 079°32'4 7.1
2019-Jun-13 09:00N 26°05' W 079°28'4 7.6
2019-Jun-13 08:30N 26°07' W 079°25'4 7.6
2019-Jun-13 08:01N 26°10' W 079°23'4 7.8
2019-Jun-13 07:27N 26°13' W 079°19'  
2019-Jun-10 21:41N 26°10' W 079°47'314.3
2019-Jun-10 21:30N 26°09' W 079°50'714.8
2019-Jun-10 21:00N 26°07' W 079°58'611.3
2019-Jun-10 20:30N 26°06' W 080°04'3 5.7
2019-Jun-10 20:00N 26°05' W 080°07'0 0.0
2019-Jun-10 19:29N 26°05' W 080°07'0 0.0
2019-Jun-10 18:59N 26°05' W 080°07'0 0.0
2019-Jun-10 18:29N 26°05' W 080°07'0 0.0
2019-Jun-10 17:59N 26°05' W 080°07'0 0.0
2019-Jun-10 17:29N 26°05' W 080°07'0 0.0
2019-Jun-10 16:59N 26°05' W 080°07'0 0.0
2019-Jun-10 16:26N 26°05' W 080°07'0 0.0
2019-Jun-10 15:59N 26°05' W 080°07'0 0.0
2019-Jun-10 15:29N 26°05' W 080°07'0 0.0
2019-Jun-10 14:59N 26°05' W 080°07'0 0.0
2019-Jun-10 14:29N 26°05' W 080°07'0 0.0
2019-Jun-10 13:56N 26°05' W 080°07'0 0.0
2019-Jun-10 13:29N 26°05' W 080°07'0 0.0
2019-Jun-10 12:59N 26°05' W 080°07'0 0.0
2019-Jun-10 12:29N 26°05' W 080°07'0 0.0
2019-Jun-10 11:59N 26°05' W 080°07'0 0.0
2019-Jun-10 11:29N 26°05' W 080°07'0 0.0
2019-Jun-10 10:59N 26°05' W 080°07'0 0.5
2019-Jun-10 10:31N 26°05' W 080°07'4 8.9
2019-Jun-10 10:01N 26°05' W 080°02'815.6
2019-Jun-10 09:30N 26°03' W 079°54'612.1
2019-Jun-10 09:00N 25°59' W 079°49'713.7
2019-Jun-10 08:30N 25°53' W 079°46'815.1
2019-Jun-10 08:00N 25°45' W 079°45'714.9
2019-Jun-10 07:30N 25°38' W 079°45'714.7
2019-Jun-10 07:00N 25°30' W 079°45'612.3
2019-Jun-10 06:29N 25°24' W 079°45'1814.2
2019-Jun-10 05:13N 25°07' W 079°50'4315.7
2019-Jun-10 02:28N 24°32' W 080°19'43816.1
2019-Jun-08 23:11N 20°34' W 086°58'318.7
2019-Jun-08 23:01N 20°31' W 086°59'2 4.4
2019-Jun-08 22:28N 20°29' W 086°59'0 0.0
2019-Jun-08 21:58N 20°29' W 086°59'0 0.0
2019-Jun-08 21:28N 20°29' W 086°59'0 0.0
2019-Jun-08 20:55N 20°29' W 086°59'0 0.0
2019-Jun-08 20:28N 20°29' W 086°59'0 0.0
2019-Jun-08 19:55N 20°29' W 086°59'0 0.0
2019-Jun-08 19:28N 20°29' W 086°59'0 0.0
2019-Jun-08 18:58N 20°29' W 086°59'0 0.0
2019-Jun-08 18:28N 20°29' W 086°59'0 0.0
2019-Jun-08 17:58N 20°29' W 086°59'0 0.0
2019-Jun-08 17:28N 20°29' W 086°59'0 0.0
2019-Jun-08 16:58N 20°29' W 086°59'0 0.0
2019-Jun-08 16:28N 20°29' W 086°59'0 0.0
2019-Jun-08 15:58N 20°29' W 086°59'0 0.0
2019-Jun-08 15:28N 20°29' W 086°59'0 0.0
2019-Jun-08 14:49N 20°29' W 086°59'0 0.0
2019-Jun-08 14:28N 20°29' W 086°59'0 0.0
2019-Jun-08 13:58N 20°29' W 086°59'0 0.0
2019-Jun-08 13:28N 20°29' W 086°59'0 0.0
2019-Jun-08 13:00N 20°29' W 086°59'2 4.0
2019-Jun-08 12:30N 20°31' W 086°59'4 8.9
2019-Jun-08 12:00N 20°28' W 087°03'216 5.3
2019-Jun-06 19:00N 22°48' W 084°06'9515.9 350 / 91011.810.8 29.024.830.0
2019-Jun-06 13:00N 23°24' W 082°30'20214.4 180 / 61013.610.8 26.024.629.0
2019-Jun-05 22:58N 25°39' W 079°46'  

Dump ship's entire track history